sensor_id;sensor_type;location;lat;lon;timestamp;P1;durP1;ratioP1;P2;durP2;ratioP2
57309;SDS011;43153;50.984;18.204;2023-07-20T00:02:25;8.10;;;2.80;;
57309;SDS011;43153;50.984;18.204;2023-07-20T00:04:55;10.50;;;2.80;;
57309;SDS011;43153;50.984;18.204;2023-07-20T00:07:25;7.80;;;2.30;;
57309;SDS011;43153;50.984;18.204;2023-07-20T00:09:56;8.90;;;2.60;;
57309;SDS011;43153;50.984;18.204;2023-07-20T00:12:24;10.40;;;2.30;;
57309;SDS011;43153;50.984;18.204;2023-07-20T00:14:58;7.00;;;2.30;;
57309;SDS011;43153;50.984;18.204;2023-07-20T00:17:42;11.60;;;2.30;;
57309;SDS011;43153;50.984;18.204;2023-07-20T00:20:12;8.10;;;2.20;;
57309;SDS011;43153;50.984;18.204;2023-07-20T00:22:47;9.60;;;2.90;;
57309;SDS011;43153;50.984;18.204;2023-07-20T00:25:18;7.60;;;2.50;;
57309;SDS011;43153;50.984;18.204;2023-07-20T00:27:56;7.00;;;2.00;;
57309;SDS011;43153;50.984;18.204;2023-07-20T00:30:22;10.30;;;1.90;;
57309;SDS011;43153;50.984;18.204;2023-07-20T00:33:06;7.70;;;2.10;;
57309;SDS011;43153;50.984;18.204;2023-07-20T00:35:38;7.20;;;2.20;;
57309;SDS011;43153;50.984;18.204;2023-07-20T00:38:04;6.30;;;2.30;;
57309;SDS011;43153;50.984;18.204;2023-07-20T00:40:37;8.00;;;2.40;;
57309;SDS011;43153;50.984;18.204;2023-07-20T00:43:35;10.60;;;2.00;;
57309;SDS011;43153;50.984;18.204;2023-07-20T00:46:07;8.30;;;2.00;;
57309;SDS011;43153;50.984;18.204;2023-07-20T00:51:04;5.20;;;1.70;;
57309;SDS011;43153;50.984;18.204;2023-07-20T00:53:36;8.00;;;1.80;;
57309;SDS011;43153;50.984;18.204;2023-07-20T00:56:05;8.70;;;2.50;;
57309;SDS011;43153;50.984;18.204;2023-07-20T00:58:40;7.20;;;1.30;;
57309;SDS011;43153;50.984;18.204;2023-07-20T01:01:09;5.40;;;1.70;;
57309;SDS011;43153;50.984;18.204;2023-07-20T01:03:39;7.90;;;1.90;;
57309;SDS011;43153;50.984;18.204;2023-07-20T01:14:38;6.50;;;1.80;;
57309;SDS011;43153;50.984;18.204;2023-07-20T01:17:04;5.10;;;1.40;;
57309;SDS011;43153;50.984;18.204;2023-07-20T01:19:30;9.00;;;2.30;;
57309;SDS011;43153;50.984;18.204;2023-07-20T01:22:01;7.30;;;1.80;;
57309;SDS011;43153;50.984;18.204;2023-07-20T01:25:07;5.00;;;1.80;;
57309;SDS011;43153;50.984;18.204;2023-07-20T01:33:04;7.70;;;2.00;;
57309;SDS011;43153;50.984;18.204;2023-07-20T01:35:36;7.20;;;1.60;;
57309;SDS011;43153;50.984;18.204;2023-07-20T01:38:07;6.00;;;1.50;;
57309;SDS011;43153;50.984;18.204;2023-07-20T01:40:50;6.50;;;1.60;;
57309;SDS011;43153;50.984;18.204;2023-07-20T01:43:23;5.00;;;1.30;;
57309;SDS011;43153;50.984;18.204;2023-07-20T01:45:55;9.20;;;2.20;;
57309;SDS011;43153;50.984;18.204;2023-07-20T01:48:25;8.50;;;2.60;;
57309;SDS011;43153;50.984;18.204;2023-07-20T01:50:57;5.40;;;1.70;;
57309;SDS011;43153;50.984;18.204;2023-07-20T01:53:22;6.80;;;1.70;;
57309;SDS011;43153;50.984;18.204;2023-07-20T01:55:49;5.20;;;1.50;;
57309;SDS011;43153;50.984;18.204;2023-07-20T01:58:19;4.80;;;1.90;;
57309;SDS011;43153;50.984;18.204;2023-07-20T02:00:51;6.50;;;1.60;;
57309;SDS011;43153;50.984;18.204;2023-07-20T02:03:23;7.60;;;1.70;;
57309;SDS011;43153;50.984;18.204;2023-07-20T02:05:52;6.80;;;1.80;;
57309;SDS011;43153;50.984;18.204;2023-07-20T02:08:18;7.50;;;1.70;;
57309;SDS011;43153;50.984;18.204;2023-07-20T02:10:46;8.50;;;1.60;;
57309;SDS011;43153;50.984;18.204;2023-07-20T02:13:14;6.00;;;2.00;;
57309;SDS011;43153;50.984;18.204;2023-07-20T02:15:41;6.80;;;1.70;;
57309;SDS011;43153;50.984;18.204;2023-07-20T02:18:12;6.80;;;1.60;;
57309;SDS011;43153;50.984;18.204;2023-07-20T02:20:40;6.60;;;1.80;;
57309;SDS011;43153;50.984;18.204;2023-07-20T02:23:21;6.30;;;2.00;;
57309;SDS011;43153;50.984;18.204;2023-07-20T02:25:48;8.90;;;2.10;;
57309;SDS011;43153;50.984;18.204;2023-07-20T02:28:19;6.90;;;1.50;;
57309;SDS011;43153;50.984;18.204;2023-07-20T02:30:47;5.10;;;2.00;;
57309;SDS011;43153;50.984;18.204;2023-07-20T02:33:25;7.80;;;3.00;;
57309;SDS011;43153;50.984;18.204;2023-07-20T02:35:52;8.20;;;3.00;;
57309;SDS011;43153;50.984;18.204;2023-07-20T02:38:18;11.50;;;3.90;;
57309;SDS011;43153;50.984;18.204;2023-07-20T02:40:58;10.60;;;4.60;;
57309;SDS011;43153;50.984;18.204;2023-07-20T02:43:31;10.60;;;5.70;;
57309;SDS011;43153;50.984;18.204;2023-07-20T02:45:57;11.50;;;5.80;;
57309;SDS011;43153;50.984;18.204;2023-07-20T02:48:24;16.40;;;7.50;;
57309;SDS011;43153;50.984;18.204;2023-07-20T02:50:50;16.10;;;9.50;;
57309;SDS011;43153;50.984;18.204;2023-07-20T02:53:17;20.40;;;10.90;;
57309;SDS011;43153;50.984;18.204;2023-07-20T02:55:46;24.00;;;13.90;;
57309;SDS011;43153;50.984;18.204;2023-07-20T02:58:13;19.50;;;11.90;;
57309;SDS011;43153;50.984;18.204;2023-07-20T03:00:49;18.40;;;11.30;;
57309;SDS011;43153;50.984;18.204;2023-07-20T03:03:17;20.30;;;9.80;;
57309;SDS011;43153;50.984;18.204;2023-07-20T03:05:46;19.80;;;9.00;;
57309;SDS011;43153;50.984;18.204;2023-07-20T03:08:12;17.10;;;9.00;;
57309;SDS011;43153;50.984;18.204;2023-07-20T03:10:41;15.10;;;9.20;;
57309;SDS011;43153;50.984;18.204;2023-07-20T03:13:07;20.10;;;11.30;;
57309;SDS011;43153;50.984;18.204;2023-07-20T03:15:34;15.00;;;10.10;;
57309;SDS011;43153;50.984;18.204;2023-07-20T03:18:02;18.10;;;10.60;;
57309;SDS011;43153;50.984;18.204;2023-07-20T03:20:32;18.80;;;11.50;;
57309;SDS011;43153;50.984;18.204;2023-07-20T03:22:58;18.40;;;10.60;;
57309;SDS011;43153;50.984;18.204;2023-07-20T03:25:27;20.80;;;11.00;;
57309;SDS011;43153;50.984;18.204;2023-07-20T03:27:54;20.40;;;12.10;;
57309;SDS011;43153;50.984;18.204;2023-07-20T03:30:22;21.30;;;12.60;;
57309;SDS011;43153;50.984;18.204;2023-07-20T03:33:02;22.00;;;12.40;;
57309;SDS011;43153;50.984;18.204;2023-07-20T03:35:42;28.30;;;18.00;;
57309;SDS011;43153;50.984;18.204;2023-07-20T03:38:11;50.10;;;30.50;;
57309;SDS011;43153;50.984;18.204;2023-07-20T03:40:39;45.50;;;26.20;;
57309;SDS011;43153;50.984;18.204;2023-07-20T03:43:05;37.80;;;24.70;;
57309;SDS011;43153;50.984;18.204;2023-07-20T03:45:34;28.20;;;17.80;;
57309;SDS011;43153;50.984;18.204;2023-07-20T03:48:07;33.60;;;17.80;;
57309;SDS011;43153;50.984;18.204;2023-07-20T03:50:36;24.30;;;14.00;;
57309;SDS011;43153;50.984;18.204;2023-07-20T03:53:03;23.70;;;14.50;;
57309;SDS011;43153;50.984;18.204;2023-07-20T03:55:39;23.50;;;14.00;;
57309;SDS011;43153;50.984;18.204;2023-07-20T03:58:07;24.20;;;13.20;;
57309;SDS011;43153;50.984;18.204;2023-07-20T04:00:34;23.10;;;13.30;;
57309;SDS011;43153;50.984;18.204;2023-07-20T04:03:07;18.10;;;11.80;;
57309;SDS011;43153;50.984;18.204;2023-07-20T04:05:46;24.70;;;16.80;;
57309;SDS011;43153;50.984;18.204;2023-07-20T04:08:12;20.50;;;12.30;;
57309;SDS011;43153;50.984;18.204;2023-07-20T04:10:43;26.30;;;13.30;;
57309;SDS011;43153;50.984;18.204;2023-07-20T04:13:13;17.80;;;11.90;;
57309;SDS011;43153;50.984;18.204;2023-07-20T04:15:42;24.00;;;12.40;;
57309;SDS011;43153;50.984;18.204;2023-07-20T04:18:12;29.10;;;14.60;;
57309;SDS011;43153;50.984;18.204;2023-07-20T04:20:38;22.50;;;13.30;;
57309;SDS011;43153;50.984;18.204;2023-07-20T04:23:09;28.90;;;18.20;;
57309;SDS011;43153;50.984;18.204;2023-07-20T04:25:38;22.80;;;12.20;;
57309;SDS011;43153;50.984;18.204;2023-07-20T04:28:06;18.70;;;11.20;;
57309;SDS011;43153;50.984;18.204;2023-07-20T04:30:36;18.40;;;11.30;;
57309;SDS011;43153;50.984;18.204;2023-07-20T04:33:03;21.00;;;10.80;;
57309;SDS011;43153;50.984;18.204;2023-07-20T04:35:45;19.10;;;10.50;;
57309;SDS011;43153;50.984;18.204;2023-07-20T04:38:14;15.60;;;10.10;;
57309;SDS011;43153;50.984;18.204;2023-07-20T04:40:44;19.90;;;10.60;;
57309;SDS011;43153;50.984;18.204;2023-07-20T04:43:17;19.10;;;9.50;;
57309;SDS011;43153;50.984;18.204;2023-07-20T04:45:46;19.20;;;11.10;;
57309;SDS011;43153;50.984;18.204;2023-07-20T04:48:15;22.90;;;10.20;;
57309;SDS011;43153;50.984;18.204;2023-07-20T04:50:44;18.10;;;9.90;;
57309;SDS011;43153;50.984;18.204;2023-07-20T04:53:21;15.50;;;9.40;;
57309;SDS011;43153;50.984;18.204;2023-07-20T04:55:53;15.20;;;8.60;;
57309;SDS011;43153;50.984;18.204;2023-07-20T04:58:28;16.10;;;9.00;;
57309;SDS011;43153;50.984;18.204;2023-07-20T05:00:55;17.00;;;8.10;;
57309;SDS011;43153;50.984;18.204;2023-07-20T05:03:22;16.80;;;8.70;;
57309;SDS011;43153;50.984;18.204;2023-07-20T05:05:56;19.90;;;12.60;;
57309;SDS011;43153;50.984;18.204;2023-07-20T05:08:37;18.20;;;11.50;;
57309;SDS011;43153;50.984;18.204;2023-07-20T05:11:05;22.10;;;11.80;;
57309;SDS011;43153;50.984;18.204;2023-07-20T05:13:34;16.70;;;10.30;;
57309;SDS011;43153;50.984;18.204;2023-07-20T05:16:05;12.60;;;7.80;;
57309;SDS011;43153;50.984;18.204;2023-07-20T05:18:32;14.10;;;8.30;;
57309;SDS011;43153;50.984;18.204;2023-07-20T05:21:02;15.20;;;8.70;;
57309;SDS011;43153;50.984;18.204;2023-07-20T05:23:29;13.10;;;7.00;;
57309;SDS011;43153;50.984;18.204;2023-07-20T05:25:55;14.20;;;7.80;;
57309;SDS011;43153;50.984;18.204;2023-07-20T05:28:23;13.20;;;6.90;;
57309;SDS011;43153;50.984;18.204;2023-07-20T05:30:53;16.60;;;10.30;;
57309;SDS011;43153;50.984;18.204;2023-07-20T05:33:19;28.90;;;13.70;;
57309;SDS011;43153;50.984;18.204;2023-07-20T05:35:46;24.50;;;14.20;;
57309;SDS011;43153;50.984;18.204;2023-07-20T05:38:13;22.10;;;13.60;;
57309;SDS011;43153;50.984;18.204;2023-07-20T05:40:40;23.90;;;14.20;;
57309;SDS011;43153;50.984;18.204;2023-07-20T05:43:07;22.80;;;13.70;;
57309;SDS011;43153;50.984;18.204;2023-07-20T05:45:34;22.70;;;13.40;;
57309;SDS011;43153;50.984;18.204;2023-07-20T05:48:03;19.90;;;12.90;;
57309;SDS011;43153;50.984;18.204;2023-07-20T05:50:45;19.30;;;11.20;;
57309;SDS011;43153;50.984;18.204;2023-07-20T05:55:42;24.00;;;14.40;;
57309;SDS011;43153;50.984;18.204;2023-07-20T05:58:11;24.30;;;16.60;;
57309;SDS011;43153;50.984;18.204;2023-07-20T06:00:41;26.70;;;16.20;;
57309;SDS011;43153;50.984;18.204;2023-07-20T06:03:09;23.30;;;14.70;;
57309;SDS011;43153;50.984;18.204;2023-07-20T06:05:36;22.40;;;14.70;;
57309;SDS011;43153;50.984;18.204;2023-07-20T06:08:02;24.80;;;15.70;;
57309;SDS011;43153;50.984;18.204;2023-07-20T06:10:28;26.00;;;15.60;;
57309;SDS011;43153;50.984;18.204;2023-07-20T06:12:56;24.80;;;16.50;;
57309;SDS011;43153;50.984;18.204;2023-07-20T06:15:26;24.20;;;16.90;;
57309;SDS011;43153;50.984;18.204;2023-07-20T06:17:55;27.40;;;18.50;;
57309;SDS011;43153;50.984;18.204;2023-07-20T06:20:23;29.50;;;20.20;;
57309;SDS011;43153;50.984;18.204;2023-07-20T06:22:49;25.60;;;19.30;;
57309;SDS011;43153;50.984;18.204;2023-07-20T06:25:15;31.30;;;20.30;;
57309;SDS011;43153;50.984;18.204;2023-07-20T06:27:43;31.10;;;19.40;;
57309;SDS011;43153;50.984;18.204;2023-07-20T06:30:14;27.60;;;18.90;;
57309;SDS011;43153;50.984;18.204;2023-07-20T06:32:43;32.00;;;19.10;;
57309;SDS011;43153;50.984;18.204;2023-07-20T06:35:11;25.00;;;17.50;;
57309;SDS011;43153;50.984;18.204;2023-07-20T06:37:38;21.20;;;14.90;;
57309;SDS011;43153;50.984;18.204;2023-07-20T06:40:04;20.60;;;15.40;;
57309;SDS011;43153;50.984;18.204;2023-07-20T06:42:32;23.10;;;15.20;;
57309;SDS011;43153;50.984;18.204;2023-07-20T06:45:01;21.30;;;14.20;;
57309;SDS011;43153;50.984;18.204;2023-07-20T06:47:33;20.10;;;15.10;;
57309;SDS011;43153;50.984;18.204;2023-07-20T06:49:59;18.40;;;14.50;;
57309;SDS011;43153;50.984;18.204;2023-07-20T06:52:27;20.10;;;13.00;;
57309;SDS011;43153;50.984;18.204;2023-07-20T06:54:54;18.60;;;13.80;;
57309;SDS011;43153;50.984;18.204;2023-07-20T06:57:19;16.20;;;10.40;;
57309;SDS011;43153;50.984;18.204;2023-07-20T06:59:48;15.50;;;10.10;;
57309;SDS011;43153;50.984;18.204;2023-07-20T07:02:15;17.70;;;9.90;;
57309;SDS011;43153;50.984;18.204;2023-07-20T07:04:42;14.40;;;8.20;;
57309;SDS011;43153;50.984;18.204;2023-07-20T07:07:09;15.50;;;7.80;;
57309;SDS011;43153;50.984;18.204;2023-07-20T07:09:35;13.20;;;7.20;;
57309;SDS011;43153;50.984;18.204;2023-07-20T07:12:03;13.40;;;8.10;;
57309;SDS011;43153;50.984;18.204;2023-07-20T07:14:30;13.60;;;8.20;;
57309;SDS011;43153;50.984;18.204;2023-07-20T07:17:01;10.30;;;5.40;;
57309;SDS011;43153;50.984;18.204;2023-07-20T07:19:27;10.00;;;6.50;;
57309;SDS011;43153;50.984;18.204;2023-07-20T07:21:53;11.90;;;7.00;;
57309;SDS011;43153;50.984;18.204;2023-07-20T07:24:19;11.20;;;7.00;;
57309;SDS011;43153;50.984;18.204;2023-07-20T07:26:45;13.10;;;7.00;;
57309;SDS011;43153;50.984;18.204;2023-07-20T07:29:11;11.10;;;5.80;;
57309;SDS011;43153;50.984;18.204;2023-07-20T07:31:37;10.60;;;5.50;;
57309;SDS011;43153;50.984;18.204;2023-07-20T07:34:04;9.50;;;4.80;;
57309;SDS011;43153;50.984;18.204;2023-07-20T07:36:31;12.40;;;4.80;;
57309;SDS011;43153;50.984;18.204;2023-07-20T07:38:58;9.20;;;4.20;;
57309;SDS011;43153;50.984;18.204;2023-07-20T07:41:23;8.60;;;3.50;;
57309;SDS011;43153;50.984;18.204;2023-07-20T07:43:49;7.50;;;3.20;;
57309;SDS011;43153;50.984;18.204;2023-07-20T07:46:17;5.30;;;2.70;;
57309;SDS011;43153;50.984;18.204;2023-07-20T07:48:43;7.40;;;2.60;;
57309;SDS011;43153;50.984;18.204;2023-07-20T07:51:10;5.00;;;2.20;;
57309;SDS011;43153;50.984;18.204;2023-07-20T07:53:39;6.10;;;2.60;;
57309;SDS011;43153;50.984;18.204;2023-07-20T07:56:08;5.60;;;2.20;;
57309;SDS011;43153;50.984;18.204;2023-07-20T07:58:41;5.80;;;3.00;;
57309;SDS011;43153;50.984;18.204;2023-07-20T08:01:09;8.20;;;4.20;;
57309;SDS011;43153;50.984;18.204;2023-07-20T08:03:35;4.50;;;2.00;;
57309;SDS011;43153;50.984;18.204;2023-07-20T08:06:02;11.60;;;3.50;;
57309;SDS011;43153;50.984;18.204;2023-07-20T08:08:30;6.60;;;2.40;;
57309;SDS011;43153;50.984;18.204;2023-07-20T08:10:57;5.50;;;2.30;;
57309;SDS011;43153;50.984;18.204;2023-07-20T08:13:23;4.40;;;2.10;;
57309;SDS011;43153;50.984;18.204;2023-07-20T08:15:50;11.50;;;2.50;;
57309;SDS011;43153;50.984;18.204;2023-07-20T08:18:19;8.10;;;1.80;;
57309;SDS011;43153;50.984;18.204;2023-07-20T08:20:48;5.50;;;2.00;;
57309;SDS011;43153;50.984;18.204;2023-07-20T08:23:19;5.80;;;1.50;;
57309;SDS011;43153;50.984;18.204;2023-07-20T08:25:49;3.20;;;1.40;;
57309;SDS011;43153;50.984;18.204;2023-07-20T08:28:15;6.90;;;1.30;;
57309;SDS011;43153;50.984;18.204;2023-07-20T08:30:45;4.00;;;1.70;;
57309;SDS011;43153;50.984;18.204;2023-07-20T08:33:15;4.50;;;1.50;;
57309;SDS011;43153;50.984;18.204;2023-07-20T08:35:45;4.70;;;2.00;;
57309;SDS011;43153;50.984;18.204;2023-07-20T08:38:11;5.70;;;2.00;;
57309;SDS011;43153;50.984;18.204;2023-07-20T08:40:41;8.90;;;1.60;;
57309;SDS011;43153;50.984;18.204;2023-07-20T09:24:41;7.10;;;1.40;;
57309;SDS011;43153;50.984;18.204;2023-07-20T09:27:15;6.60;;;1.70;;
57309;SDS011;43153;50.984;18.204;2023-07-20T09:29:48;4.90;;;1.60;;
57309;SDS011;43153;50.984;18.204;2023-07-20T09:32:19;4.90;;;1.50;;
57309;SDS011;43153;50.984;18.204;2023-07-20T09:34:47;9.20;;;1.80;;
57309;SDS011;43153;50.984;18.204;2023-07-20T09:37:20;4.80;;;1.30;;
57309;SDS011;43153;50.984;18.204;2023-07-20T09:39:51;4.90;;;1.40;;
57309;SDS011;43153;50.984;18.204;2023-07-20T09:42:21;4.40;;;1.60;;
57309;SDS011;43153;50.984;18.204;2023-07-20T09:44:47;6.00;;;1.70;;
57309;SDS011;43153;50.984;18.204;2023-07-20T09:47:16;8.10;;;1.80;;
57309;SDS011;43153;50.984;18.204;2023-07-20T09:49:49;12.80;;;2.50;;
57309;SDS011;43153;50.984;18.204;2023-07-20T09:52:26;10.50;;;2.20;;
57309;SDS011;43153;50.984;18.204;2023-07-20T09:54:54;4.10;;;1.30;;
57309;SDS011;43153;50.984;18.204;2023-07-20T09:57:23;8.00;;;2.40;;
57309;SDS011;43153;50.984;18.204;2023-07-20T09:59:54;7.00;;;1.70;;
57309;SDS011;43153;50.984;18.204;2023-07-20T10:02:25;6.00;;;1.40;;
57309;SDS011;43153;50.984;18.204;2023-07-20T10:04:52;5.00;;;1.30;;
57309;SDS011;43153;50.984;18.204;2023-07-20T10:07:19;3.20;;;1.10;;
57309;SDS011;43153;50.984;18.204;2023-07-20T10:09:49;5.90;;;1.70;;
57309;SDS011;43153;50.984;18.204;2023-07-20T10:12:17;4.60;;;0.90;;
57309;SDS011;43153;50.984;18.204;2023-07-20T10:14:44;4.30;;;1.60;;
57309;SDS011;43153;50.984;18.204;2023-07-20T10:17:20;14.80;;;2.20;;
57309;SDS011;43153;50.984;18.204;2023-07-20T10:19:49;5.00;;;1.20;;
57309;SDS011;43153;50.984;18.204;2023-07-20T10:22:24;5.40;;;2.10;;
57309;SDS011;43153;50.984;18.204;2023-07-20T10:24:53;5.60;;;1.70;;
57309;SDS011;43153;50.984;18.204;2023-07-20T10:27:22;6.70;;;2.10;;
57309;SDS011;43153;50.984;18.204;2023-07-20T10:29:48;5.90;;;1.60;;
57309;SDS011;43153;50.984;18.204;2023-07-20T10:32:21;5.00;;;1.50;;
57309;SDS011;43153;50.984;18.204;2023-07-20T10:34:51;7.60;;;1.70;;
57309;SDS011;43153;50.984;18.204;2023-07-20T10:40:53;5.10;;;1.60;;
57309;SDS011;43153;50.984;18.204;2023-07-20T10:43:20;4.00;;;1.40;;
57309;SDS011;43153;50.984;18.204;2023-07-20T10:45:52;6.70;;;2.30;;
57309;SDS011;43153;50.984;18.204;2023-07-20T10:48:24;4.20;;;1.60;;
57309;SDS011;43153;50.984;18.204;2023-07-20T10:51:11;7.20;;;1.90;;
57309;SDS011;43153;50.984;18.204;2023-07-20T10:53:43;5.60;;;2.00;;
57309;SDS011;43153;50.984;18.204;2023-07-20T10:56:13;7.00;;;1.80;;
57309;SDS011;43153;50.984;18.204;2023-07-20T10:58:41;4.90;;;1.60;;
57309;SDS011;43153;50.984;18.204;2023-07-20T11:01:07;6.10;;;1.80;;
57309;SDS011;43153;50.984;18.204;2023-07-20T11:03:36;6.40;;;1.80;;
57309;SDS011;43153;50.984;18.204;2023-07-20T11:09:11;5.80;;;1.70;;
57309;SDS011;43153;50.984;18.204;2023-07-20T11:11:43;6.50;;;1.70;;
57309;SDS011;43153;50.984;18.204;2023-07-20T11:16:51;3.30;;;1.40;;
57309;SDS011;43153;50.984;18.204;2023-07-20T11:19:20;4.50;;;1.10;;
57309;SDS011;43153;50.984;18.204;2023-07-20T11:21:56;6.10;;;1.50;;
57309;SDS011;43153;50.984;18.204;2023-07-20T11:24:23;4.80;;;1.20;;
57309;SDS011;43153;50.984;18.204;2023-07-20T11:26:50;2.60;;;1.00;;
57309;SDS011;43153;50.984;18.204;2023-07-20T11:29:21;4.80;;;1.00;;
57309;SDS011;43153;50.984;18.204;2023-07-20T11:31:55;2.10;;;0.80;;
57309;SDS011;43153;50.984;18.204;2023-07-20T11:34:22;1.30;;;0.70;;
57309;SDS011;43153;50.984;18.204;2023-07-20T11:36:48;3.00;;;0.70;;
57309;SDS011;43153;50.984;18.204;2023-07-20T11:39:17;3.20;;;0.50;;
57309;SDS011;43153;50.984;18.204;2023-07-20T11:41:57;6.20;;;0.90;;
57309;SDS011;43153;50.984;18.204;2023-07-20T11:44:28;1.50;;;0.60;;
57309;SDS011;43153;50.984;18.204;2023-07-20T11:47:02;2.20;;;0.70;;
57309;SDS011;43153;50.984;18.204;2023-07-20T11:49:40;2.50;;;0.90;;
57309;SDS011;43153;50.984;18.204;2023-07-20T11:52:09;2.10;;;0.50;;
57309;SDS011;43153;50.984;18.204;2023-07-20T11:54:45;3.20;;;0.60;;
57309;SDS011;43153;50.984;18.204;2023-07-20T11:57:19;2.50;;;0.80;;
57309;SDS011;43153;50.984;18.204;2023-07-20T11:59:57;1.10;;;0.50;;
57309;SDS011;43153;50.984;18.204;2023-07-20T12:02:38;3.10;;;0.70;;
57309;SDS011;43153;50.984;18.204;2023-07-20T12:05:05;2.40;;;0.50;;
57309;SDS011;43153;50.984;18.204;2023-07-20T12:07:37;1.00;;;0.30;;
57309;SDS011;43153;50.984;18.204;2023-07-20T12:10:04;2.60;;;0.60;;
57309;SDS011;43153;50.984;18.204;2023-07-20T12:12:32;1.10;;;0.50;;
57309;SDS011;43153;50.984;18.204;2023-07-20T12:17:45;2.30;;;0.70;;
57309;SDS011;43153;50.984;18.204;2023-07-20T12:20:23;1.90;;;0.50;;
57309;SDS011;43153;50.984;18.204;2023-07-20T12:26:09;1.60;;;0.50;;
57309;SDS011;43153;50.984;18.204;2023-07-20T12:28:38;1.20;;;0.50;;
57309;SDS011;43153;50.984;18.204;2023-07-20T12:31:10;1.60;;;0.60;;
57309;SDS011;43153;50.984;18.204;2023-07-20T12:33:42;1.30;;;0.60;;
57309;SDS011;43153;50.984;18.204;2023-07-20T12:36:11;2.50;;;0.50;;
57309;SDS011;43153;50.984;18.204;2023-07-20T12:41:09;2.70;;;0.50;;
57309;SDS011;43153;50.984;18.204;2023-07-20T12:43:41;2.00;;;0.60;;
57309;SDS011;43153;50.984;18.204;2023-07-20T12:46:07;0.90;;;0.50;;
57309;SDS011;43153;50.984;18.204;2023-07-20T12:48:36;1.40;;;0.30;;
57309;SDS011;43153;50.984;18.204;2023-07-20T12:51:16;2.50;;;0.70;;
57309;SDS011;43153;50.984;18.204;2023-07-20T12:53:42;1.90;;;0.60;;
57309;SDS011;43153;50.984;18.204;2023-07-20T12:56:08;1.70;;;0.60;;
57309;SDS011;43153;50.984;18.204;2023-07-20T12:58:34;2.30;;;0.50;;
57309;SDS011;43153;50.984;18.204;2023-07-20T13:01:02;1.10;;;0.40;;
57309;SDS011;43153;50.984;18.204;2023-07-20T13:03:32;1.70;;;0.60;;
57309;SDS011;43153;50.984;18.204;2023-07-20T13:06:01;2.80;;;0.60;;
57309;SDS011;43153;50.984;18.204;2023-07-20T13:08:31;1.30;;;0.50;;
57309;SDS011;43153;50.984;18.204;2023-07-20T13:11:02;3.10;;;0.70;;
57309;SDS011;43153;50.984;18.204;2023-07-20T13:13:31;2.60;;;0.60;;
57309;SDS011;43153;50.984;18.204;2023-07-20T13:15:58;7.20;;;1.00;;
57309;SDS011;43153;50.984;18.204;2023-07-20T13:18:25;4.90;;;0.70;;
57309;SDS011;43153;50.984;18.204;2023-07-20T13:20:55;3.10;;;0.60;;
57309;SDS011;43153;50.984;18.204;2023-07-20T13:23:25;4.20;;;0.70;;
57309;SDS011;43153;50.984;18.204;2023-07-20T13:25:51;3.30;;;0.60;;
57309;SDS011;43153;50.984;18.204;2023-07-20T13:28:17;2.10;;;0.70;;
57309;SDS011;43153;50.984;18.204;2023-07-20T13:30:46;2.60;;;0.70;;
57309;SDS011;43153;50.984;18.204;2023-07-20T13:33:12;1.70;;;0.60;;
57309;SDS011;43153;50.984;18.204;2023-07-20T13:35:37;1.80;;;0.50;;
57309;SDS011;43153;50.984;18.204;2023-07-20T13:38:03;2.10;;;0.50;;
57309;SDS011;43153;50.984;18.204;2023-07-20T13:40:30;2.20;;;0.60;;
57309;SDS011;43153;50.984;18.204;2023-07-20T13:42:57;5.30;;;0.80;;
57309;SDS011;43153;50.984;18.204;2023-07-20T13:45:25;4.50;;;0.70;;
57309;SDS011;43153;50.984;18.204;2023-07-20T13:47:56;3.20;;;0.70;;
57309;SDS011;43153;50.984;18.204;2023-07-20T13:50:23;3.70;;;0.60;;
57309;SDS011;43153;50.984;18.204;2023-07-20T13:52:49;3.40;;;0.70;;
57309;SDS011;43153;50.984;18.204;2023-07-20T13:55:16;2.80;;;0.80;;
57309;SDS011;43153;50.984;18.204;2023-07-20T13:57:48;2.10;;;0.70;;
57309;SDS011;43153;50.984;18.204;2023-07-20T14:00:17;2.40;;;0.70;;
57309;SDS011;43153;50.984;18.204;2023-07-20T14:02:45;2.30;;;0.70;;
57309;SDS011;43153;50.984;18.204;2023-07-20T14:05:12;3.40;;;0.90;;
57309;SDS011;43153;50.984;18.204;2023-07-20T14:07:44;2.70;;;0.80;;
57309;SDS011;43153;50.984;18.204;2023-07-20T14:10:14;3.90;;;1.00;;
57309;SDS011;43153;50.984;18.204;2023-07-20T14:12:42;2.30;;;0.60;;
57309;SDS011;43153;50.984;18.204;2023-07-20T14:15:10;2.40;;;0.70;;
57309;SDS011;43153;50.984;18.204;2023-07-20T14:17:39;3.50;;;0.70;;
57309;SDS011;43153;50.984;18.204;2023-07-20T14:20:18;2.90;;;0.90;;
57309;SDS011;43153;50.984;18.204;2023-07-20T14:22:46;1.50;;;0.60;;
57309;SDS011;43153;50.984;18.204;2023-07-20T14:25:19;2.20;;;0.90;;
57309;SDS011;43153;50.984;18.204;2023-07-20T14:27:45;1.50;;;0.40;;
57309;SDS011;43153;50.984;18.204;2023-07-20T14:30:16;2.10;;;0.40;;
57309;SDS011;43153;50.984;18.204;2023-07-20T14:32:41;1.80;;;0.60;;
57309;SDS011;43153;50.984;18.204;2023-07-20T14:35:15;3.00;;;0.60;;
57309;SDS011;43153;50.984;18.204;2023-07-20T14:37:41;3.90;;;0.90;;
57309;SDS011;43153;50.984;18.204;2023-07-20T14:40:12;1.80;;;0.70;;
57309;SDS011;43153;50.984;18.204;2023-07-20T14:42:41;2.10;;;0.70;;
57309;SDS011;43153;50.984;18.204;2023-07-20T14:45:08;4.10;;;1.10;;
57309;SDS011;43153;50.984;18.204;2023-07-20T14:47:37;2.10;;;0.80;;
57309;SDS011;43153;50.984;18.204;2023-07-20T14:50:09;7.20;;;1.20;;
57309;SDS011;43153;50.984;18.204;2023-07-20T14:52:35;3.10;;;1.00;;
57309;SDS011;43153;50.984;18.204;2023-07-20T14:55:04;2.40;;;0.80;;
57309;SDS011;43153;50.984;18.204;2023-07-20T14:57:34;2.90;;;0.60;;
57309;SDS011;43153;50.984;18.204;2023-07-20T15:00:05;2.80;;;1.10;;
57309;SDS011;43153;50.984;18.204;2023-07-20T15:02:37;3.40;;;1.10;;
57309;SDS011;43153;50.984;18.204;2023-07-20T15:05:06;2.30;;;0.70;;
57309;SDS011;43153;50.984;18.204;2023-07-20T15:07:32;2.90;;;0.60;;
57309;SDS011;43153;50.984;18.204;2023-07-20T15:09:59;2.20;;;0.70;;
57309;SDS011;43153;50.984;18.204;2023-07-20T15:12:27;2.70;;;1.00;;
57309;SDS011;43153;50.984;18.204;2023-07-20T15:54:23;1.90;;;0.60;;
57309;SDS011;43153;50.984;18.204;2023-07-20T15:56:49;1.70;;;0.50;;
57309;SDS011;43153;50.984;18.204;2023-07-20T16:01:48;1.80;;;0.40;;
57309;SDS011;43153;50.984;18.204;2023-07-20T16:04:15;2.10;;;0.60;;
57309;SDS011;43153;50.984;18.204;2023-07-20T16:06:43;2.30;;;0.70;;
57309;SDS011;43153;50.984;18.204;2023-07-20T16:09:10;1.30;;;0.40;;
57309;SDS011;43153;50.984;18.204;2023-07-20T16:11:35;1.20;;;0.60;;
57309;SDS011;43153;50.984;18.204;2023-07-20T16:14:02;3.20;;;0.40;;
57309;SDS011;43153;50.984;18.204;2023-07-20T16:16:31;1.00;;;0.50;;
57309;SDS011;43153;50.984;18.204;2023-07-20T16:19:00;2.30;;;0.50;;
57309;SDS011;43153;50.984;18.204;2023-07-20T16:21:26;1.00;;;0.50;;
57309;SDS011;43153;50.984;18.204;2023-07-20T16:23:54;1.90;;;0.60;;
57309;SDS011;43153;50.984;18.204;2023-07-20T16:26:20;1.10;;;0.40;;
57309;SDS011;43153;50.984;18.204;2023-07-20T16:28:46;3.50;;;0.70;;
57309;SDS011;43153;50.984;18.204;2023-07-20T16:31:12;2.20;;;0.50;;
57309;SDS011;43153;50.984;18.204;2023-07-20T16:33:39;1.00;;;0.50;;
57309;SDS011;43153;50.984;18.204;2023-07-20T16:36:09;1.70;;;0.60;;
57309;SDS011;43153;50.984;18.204;2023-07-20T16:38:39;1.50;;;0.60;;
57309;SDS011;43153;50.984;18.204;2023-07-20T16:41:06;0.90;;;0.40;;